Disclaimer

Please do not use the information listed here in-flight or in-navigation, as they are not provided to us by the airports but are provided by volunteers, so they might be outdated.

Search


Regions


Airport information page

Radio informations:
Ground (GND) - 130.5 MHz

Airport informations:
Latitude: 49° 42' 22.00" N
Longitude: 002° 12' 53.00" W
Elevation: 290 feet - 88 meters
Operating hours: N/A
Operating agency: Civil government, landing fees and diplomatic clearance may be required
Timezone: N/A
Fuel: N/A

Runway information:
03/21 - 1630 x 121 feet< - >497 x 37 meters
08/26 - 2887 x 75 feet< - >880 x 23 meters
14/32 - 2402 x 121 feet< - >732 x 37 meters

Recent METARs:
EGJA 201820Z VRB02KT 6000 -SHRA FEW005 BKN030CB 04/02 Q1003
EGJA 201820Z VRB02KT 6000 -SHRA FEW005 BKN030CB 04/02 Q1003
EGJA 201820Z VRB02KT 6000 -SHRA FEW005 BKN030CB 04/02 Q1003

Airport on the map: